createdAt,value
2018-06-15T00:00:20.211Z,9.93
2018-06-15T00:02:54.264Z,13.60
2018-06-15T00:05:23.334Z,16.57
2018-06-15T00:07:52.368Z,12.17
2018-06-15T00:10:21.544Z,9.70
2018-06-15T00:12:50.585Z,15.70
2018-06-15T00:15:19.647Z,13.60
2018-06-15T00:17:49.026Z,15.83
2018-06-15T00:20:17.739Z,9.80
2018-06-15T00:22:46.674Z,16.87
2018-06-15T00:25:15.640Z,14.10
2018-06-15T00:27:44.877Z,16.47
2018-06-15T00:30:13.912Z,15.63
2018-06-15T00:32:42.955Z,12.60
2018-06-15T00:35:11.664Z,15.23
2018-06-15T00:37:40.599Z,12.00
2018-06-15T00:40:09.662Z,15.70
2018-06-15T00:42:38.745Z,14.10
2018-06-15T00:45:08.103Z,17.43
2018-06-15T00:47:37.157Z,14.40
2018-06-15T00:50:05.882Z,16.83
2018-06-15T00:52:34.503Z,15.50
2018-06-15T00:55:03.167Z,15.83
2018-06-15T00:57:43.828Z,15.83
2018-06-15T01:00:13.199Z,16.63
2018-06-15T01:02:42.239Z,17.83
2018-06-15T01:05:11.448Z,16.37
2018-06-15T01:07:40.518Z,21.57
2018-06-15T01:10:09.575Z,16.10
2018-06-15T01:12:38.287Z,13.83
2018-06-15T01:15:07.719Z,11.67
2018-06-15T01:17:37.127Z,19.57
2018-06-15T01:20:06.191Z,19.10
2018-06-15T01:22:34.919Z,13.77
2018-06-15T01:25:03.891Z,16.60
2018-06-15T01:27:32.920Z,19.90
2018-06-15T01:30:02.005Z,23.17
2018-06-15T01:32:30.770Z,12.53
2018-06-15T01:34:59.745Z,10.57
2018-06-15T01:37:29.059Z,19.67
2018-06-15T01:40:04.410Z,17.20
2018-06-15T01:42:33.070Z,16.50
2018-06-15T01:45:02.024Z,12.00
2018-06-15T01:47:31.079Z,11.73
2018-06-15T01:50:00.116Z,16.67
2018-06-15T01:52:28.859Z,22.97
2018-06-15T01:54:57.839Z,13.20
2018-06-15T01:57:26.936Z,20.10
2018-06-15T01:59:55.775Z,11.90
2018-06-15T02:02:24.719Z,27.43
2018-06-15T02:04:53.795Z,18.30
2018-06-15T02:07:22.827Z,16.73
2018-06-15T02:09:52.497Z,15.70
2018-06-15T02:12:21.206Z,16.43
2018-06-15T02:14:50.043Z,16.17
2018-06-15T02:17:19.014Z,14.53
2018-06-15T02:19:48.064Z,14.87
2018-06-15T02:22:16.779Z,18.97
2018-06-15T02:24:45.732Z,18.53
2018-06-15T02:27:14.789Z,15.90
2018-06-15T02:29:43.808Z,12.70
2018-06-15T02:32:12.901Z,14.87
2018-06-15T02:34:41.967Z,12.53
2018-06-15T02:37:11.043Z,21.13
2018-06-15T02:39:40.098Z,20.90
2018-06-15T02:42:09.140Z,18.17
2018-06-15T02:44:38.205Z,18.13
2018-06-15T02:47:07.074Z,15.60
2018-06-15T02:49:36.031Z,16.07
2018-06-15T02:52:04.856Z,16.03
2018-06-15T02:54:33.521Z,16.83
2018-06-15T02:57:02.155Z,20.57
2018-06-15T02:59:30.787Z,17.57
2018-06-15T03:01:59.759Z,16.60
2018-06-15T03:04:28.815Z,20.07
2018-06-15T03:06:58.542Z,14.47
2018-06-15T03:09:27.575Z,20.40
2018-06-15T03:11:56.606Z,18.17
2018-06-15T03:14:25.643Z,15.03
2018-06-15T03:16:55.187Z,19.37
2018-06-15T03:19:24.260Z,23.47
2018-06-15T03:21:53.298Z,21.77
2018-06-15T03:24:22.347Z,12.13
2018-06-15T03:26:51.388Z,19.63
2018-06-15T03:29:20.182Z,20.90
2018-06-15T03:31:49.135Z,13.87
2018-06-15T03:34:17.856Z,19.20
2018-06-15T03:36:46.812Z,22.10
2018-06-15T03:39:15.851Z,17.73
2018-06-15T03:41:44.914Z,17.30
2018-06-15T03:44:13.890Z,16.27
2018-06-15T03:46:42.946Z,14.67
2018-06-15T03:49:11.978Z,20.43
2018-06-15T03:51:41.021Z,18.83
2018-06-15T03:54:09.736Z,17.40
2018-06-15T03:56:38.707Z,21.23
2018-06-15T03:59:07.760Z,20.07
2018-06-15T04:01:36.822Z,18.37
2018-06-15T04:04:06.211Z,14.67
2018-06-15T04:06:35.134Z,14.40
2018-06-15T04:09:06.888Z,17.47
2018-06-15T04:11:36.017Z,15.17
2018-06-15T04:14:05.176Z,23.70
2018-06-15T04:16:34.835Z,17.03
2018-06-15T04:19:03.900Z,22.03
2018-06-15T04:21:32.938Z,21.60
2018-06-15T04:24:01.673Z,18.67
2018-06-15T04:26:30.620Z,19.33
2018-06-15T04:28:59.351Z,16.33
2018-06-15T04:31:27.995Z,17.03
2018-06-15T04:33:57.067Z,18.93
2018-06-15T04:36:25.706Z,19.43
2018-06-15T04:38:54.669Z,20.73
2018-06-15T04:41:23.823Z,17.37
2018-06-15T04:43:53.211Z,16.73
2018-06-15T04:46:22.213Z,14.53
2018-06-15T04:48:51.419Z,19.80
2018-06-15T04:51:20.130Z,18.83
2018-06-15T04:53:48.768Z,17.13
2018-06-15T04:56:17.724Z,18.23
2018-06-15T04:58:46.451Z,15.80
2018-06-15T05:01:15.421Z,15.83
2018-06-15T05:03:44.457Z,15.80
2018-06-15T05:06:13.734Z,19.00
2018-06-15T05:08:43.387Z,15.03
2018-06-15T05:11:12.692Z,16.27
2018-06-15T05:13:41.749Z,15.33
2018-06-15T05:16:11.077Z,10.93
2018-06-15T05:18:39.903Z,13.77
2018-06-15T05:21:08.903Z,16.37
2018-06-15T05:23:37.962Z,9.73
2018-06-15T05:26:07.240Z,10.43
2018-06-15T05:28:36.875Z,10.87
2018-06-15T05:31:05.936Z,11.40
2018-06-15T05:33:35.029Z,10.43
2018-06-15T05:36:04.097Z,15.40
2018-06-15T05:38:33.459Z,12.43
2018-06-15T05:41:02.647Z,10.33
2018-06-15T05:43:31.811Z,12.47
2018-06-15T05:46:00.528Z,8.70
2018-06-15T05:48:29.178Z,12.93
2018-06-15T05:50:57.819Z,12.37
2018-06-15T05:53:26.787Z,10.97
2018-06-15T05:55:55.861Z,16.67
2018-06-15T05:58:24.932Z,11.07
2018-06-15T06:00:53.679Z,15.50
2018-06-15T06:03:22.656Z,13.60
2018-06-15T06:05:51.756Z,10.33
2018-06-15T06:08:20.918Z,13.80
2018-06-15T06:10:50.011Z,17.37
2018-06-15T06:13:19.255Z,16.27
2018-06-15T06:15:48.331Z,12.63
2018-06-15T06:18:17.075Z,9.83
2018-06-15T06:20:45.696Z,12.57
2018-06-15T06:23:14.350Z,11.57
2018-06-15T06:25:43.311Z,10.93
2018-06-15T06:28:12.044Z,14.17
2018-06-15T06:30:40.665Z,13.00
2018-06-15T06:33:09.287Z,12.30
2018-06-15T06:35:38.137Z,14.67
2018-06-15T06:38:07.296Z,11.40
2018-06-15T06:40:36.316Z,9.77
2018-06-15T06:43:05.161Z,9.80
2018-06-15T06:45:34.137Z,12.73
2018-06-15T06:48:03.195Z,15.43
2018-06-15T06:50:31.947Z,11.23
2018-06-15T06:53:00.542Z,11.93
2018-06-15T06:55:29.504Z,11.50
2018-06-15T06:57:58.215Z,12.50
2018-06-15T07:00:27.365Z,15.27
2018-06-15T07:02:57.982Z,7.93
2018-06-15T07:05:27.025Z,13.03
2018-06-15T07:07:56.075Z,12.80
2018-06-15T07:10:25.156Z,11.87
2018-06-15T07:12:53.875Z,11.13
2018-06-15T07:15:22.821Z,10.33
2018-06-15T07:17:51.569Z,11.53
2018-06-15T07:20:20.559Z,13.40
2018-06-15T07:22:49.604Z,12.10
2018-06-15T07:25:18.671Z,7.73
2018-06-15T07:27:47.767Z,9.67
2018-06-15T07:30:16.807Z,7.43
2018-06-15T07:32:45.848Z,11.23
2018-06-15T07:35:14.881Z,13.33
2018-06-15T07:37:44.223Z,14.57
2018-06-15T07:40:13.260Z,12.20
2018-06-15T07:42:41.983Z,9.97
2018-06-15T07:45:10.591Z,17.60
2018-06-15T07:47:39.571Z,19.67
2018-06-15T07:50:08.274Z,10.23
2018-06-15T07:52:37.231Z,13.73
2018-06-15T07:55:06.283Z,9.90
2018-06-15T07:57:35.365Z,14.77
2018-06-15T08:00:04.898Z,13.53
2018-06-15T08:02:33.587Z,10.33
2018-06-15T08:05:02.240Z,13.17
2018-06-15T08:07:30.867Z,9.23
2018-06-15T08:09:59.848Z,9.60
2018-06-15T08:12:28.588Z,9.93
2018-06-15T08:14:57.540Z,10.87
2018-06-15T08:17:26.619Z,17.37
2018-06-15T08:19:55.660Z,13.13
2018-06-15T08:22:24.720Z,9.90
2018-06-15T08:24:53.452Z,10.07
2018-06-15T08:27:22.444Z,11.37
2018-06-15T08:29:51.484Z,12.03
2018-06-15T08:32:20.531Z,11.30
2018-06-15T08:34:49.727Z,10.00
2018-06-15T08:37:19.261Z,12.37
2018-06-15T08:39:48.583Z,9.50
2018-06-15T08:42:18.417Z,12.70
2018-06-15T08:44:47.607Z,9.40
2018-06-15T08:47:16.797Z,12.93
2018-06-15T08:49:45.951Z,12.10
2018-06-15T08:52:15.385Z,11.67
2018-06-15T08:54:44.648Z,8.43
2018-06-15T08:57:13.705Z,12.00
2018-06-15T08:59:42.495Z,14.37
2018-06-15T09:02:11.144Z,12.03
2018-06-15T09:04:39.784Z,12.43
2018-06-15T09:07:08.762Z,8.90
2018-06-15T09:09:37.482Z,12.13
2018-06-15T09:12:06.533Z,11.07
2018-06-15T09:14:36.556Z,12.07
2018-06-15T09:17:05.440Z,13.53
2018-06-15T09:19:34.093Z,14.70
2018-06-15T09:22:02.756Z,11.13
2018-06-15T09:24:31.799Z,10.63
2018-06-15T09:27:00.756Z,10.80
2018-06-15T09:29:29.915Z,16.93
2018-06-15T09:31:58.955Z,14.80
2018-06-15T09:34:27.695Z,11.43
2018-06-15T09:36:56.352Z,13.47
2018-06-15T09:39:25.343Z,11.23
2018-06-15T09:41:54.063Z,12.20
2018-06-15T09:44:22.886Z,13.17
2018-06-15T09:46:51.527Z,9.67
2018-06-15T09:49:20.165Z,9.33
2018-06-15T09:51:48.803Z,12.53
2018-06-15T09:54:17.500Z,11.67
2018-06-15T09:56:46.378Z,12.90
2018-06-15T09:59:15.076Z,13.30
2018-06-15T10:01:43.694Z,10.23
2018-06-15T10:04:12.964Z,7.83
2018-06-15T10:06:42.005Z,11.37
2018-06-15T10:09:10.730Z,12.20
2018-06-15T10:11:39.715Z,7.63
2018-06-15T10:14:08.772Z,13.83
2018-06-15T10:16:37.868Z,14.10
2018-06-15T10:19:06.895Z,10.87
2018-06-15T10:21:35.651Z,13.30
2018-06-15T10:24:04.595Z,14.07
2018-06-15T10:26:33.327Z,9.27
2018-06-15T10:29:01.984Z,16.73
2018-06-15T10:31:30.634Z,12.43
2018-06-15T10:33:59.768Z,14.13
2018-06-15T10:36:28.597Z,13.73
2018-06-15T10:38:57.576Z,17.90
2018-06-15T10:41:26.319Z,12.03
2018-06-15T10:43:55.196Z,11.50
2018-06-15T10:46:23.856Z,11.83
2018-06-15T10:48:52.837Z,10.30
2018-06-15T10:51:21.944Z,17.20
2018-06-15T10:53:51.072Z,14.70
2018-06-15T10:56:19.783Z,13.60
2018-06-15T10:58:48.442Z,10.90
2018-06-15T11:01:17.234Z,13.70
2018-06-15T11:03:46.086Z,10.43
2018-06-15T11:06:15.118Z,18.60
2018-06-15T11:08:43.945Z,12.43
2018-06-15T11:11:13.164Z,13.73
2018-06-15T11:13:42.119Z,13.77
2018-06-15T11:16:10.824Z,13.40
2018-06-15T11:18:39.486Z,15.00
2018-06-15T11:21:08.436Z,13.47
2018-06-15T11:23:37.490Z,12.83
2018-06-15T11:26:06.287Z,16.57
2018-06-15T11:28:34.955Z,15.43
2018-06-15T11:31:03.945Z,14.30
2018-06-15T11:33:32.620Z,10.93
2018-06-15T11:36:01.617Z,11.83
2018-06-15T11:38:30.318Z,15.93
2018-06-15T11:40:59.350Z,14.43
2018-06-15T11:43:28.552Z,13.43
2018-06-15T11:45:57.653Z,15.30
2018-06-15T11:48:26.429Z,13.93
2018-06-15T11:50:55.418Z,12.93
2018-06-15T11:53:24.144Z,12.90
2018-06-15T11:55:53.117Z,11.53
2018-06-15T11:58:22.104Z,12.57
2018-06-15T12:00:50.719Z,14.33
2018-06-15T12:03:19.479Z,12.30
2018-06-15T12:05:48.440Z,11.87
2018-06-15T12:08:17.599Z,15.70
2018-06-15T12:10:46.692Z,17.43
2018-06-15T12:13:15.587Z,11.83
2018-06-15T12:15:44.234Z,16.47
2018-06-15T12:18:13.203Z,15.30
2018-06-15T12:20:41.923Z,18.83
2018-06-15T12:23:10.582Z,12.80
2018-06-15T12:25:39.250Z,15.93
2018-06-15T12:28:08.019Z,14.20
2018-06-15T12:30:36.655Z,18.13
2018-06-15T12:33:05.635Z,17.87
2018-06-15T12:35:34.794Z,16.27
2018-06-15T12:38:03.547Z,14.20
2018-06-15T12:40:32.225Z,17.80
2018-06-15T12:43:01.285Z,15.17
2018-06-15T12:45:30.309Z,15.00
2018-06-15T12:47:59.353Z,15.07
2018-06-15T12:50:28.095Z,11.90
2018-06-15T12:52:57.379Z,15.13
2018-06-15T12:55:26.085Z,13.27
2018-06-15T12:57:55.051Z,14.70
2018-06-15T13:00:24.157Z,15.57
2018-06-15T13:02:53.266Z,12.63
2018-06-15T13:05:22.563Z,13.97
2018-06-15T13:07:51.280Z,11.83
2018-06-15T13:10:20.278Z,13.00
2018-06-15T13:12:49.017Z,16.63
2018-06-15T13:15:17.655Z,13.57
2018-06-15T13:17:46.661Z,16.80
2018-06-15T13:20:15.707Z,13.27
2018-06-15T13:22:44.754Z,12.10
2018-06-15T13:25:13.788Z,12.57
2018-06-15T13:27:42.528Z,16.40
2018-06-15T13:30:11.165Z,14.70
2018-06-15T13:32:39.830Z,13.67
2018-06-15T13:35:08.504Z,16.33
2018-06-15T13:37:37.508Z,11.50
2018-06-15T13:40:06.255Z,16.33
2018-06-15T13:42:34.925Z,26.30
2018-06-15T13:45:04.277Z,18.50
2018-06-15T13:47:33.562Z,13.83
2018-06-15T13:50:02.719Z,18.47
2018-06-15T13:52:31.427Z,14.13
2018-06-15T13:55:00.519Z,17.73
2018-06-15T13:57:29.672Z,14.40
2018-06-15T13:59:58.742Z,15.70
2018-06-15T14:02:27.478Z,14.13
2018-06-15T14:04:56.149Z,15.50
2018-06-15T14:07:24.778Z,14.00
2018-06-15T14:09:54.229Z,16.47
2018-06-15T14:12:23.103Z,20.03
2018-06-15T14:14:51.810Z,14.87
2018-06-15T14:17:21.247Z,13.37
2018-06-15T14:19:50.356Z,19.20
2018-06-15T14:22:19.667Z,14.57
2018-06-15T14:24:48.704Z,10.83
2018-06-15T14:27:17.451Z,13.27
2018-06-15T14:29:46.116Z,11.13
2018-06-15T14:32:14.751Z,14.50
2018-06-15T14:34:43.777Z,12.17
2018-06-15T14:37:12.531Z,14.23
2018-06-15T14:39:41.199Z,17.23
2018-06-15T14:42:09.858Z,9.83
2018-06-15T14:44:38.798Z,16.40
2018-06-15T14:47:07.512Z,18.77
2018-06-15T14:49:36.481Z,13.03
2018-06-15T14:52:05.567Z,9.07
2018-06-15T14:54:34.666Z,10.93
2018-06-15T14:57:03.619Z,11.10
2018-06-15T14:59:32.373Z,19.73
2018-06-15T15:02:00.985Z,16.50
2018-06-15T15:04:29.996Z,9.90
2018-06-15T15:06:59.047Z,12.03
2018-06-15T15:09:27.785Z,11.83
2018-06-15T15:11:56.414Z,11.23
2018-06-15T15:14:25.051Z,8.10
2018-06-15T15:16:54.047Z,12.17
2018-06-15T15:19:22.726Z,13.30
2018-06-15T15:21:51.327Z,14.70
2018-06-15T15:24:20.315Z,11.93
2018-06-15T15:26:49.464Z,14.77
2018-06-15T15:29:18.073Z,8.60
2018-06-15T15:31:46.732Z,7.40
2018-06-15T15:34:15.725Z,13.43
2018-06-15T15:36:44.786Z,10.37
2018-06-15T15:39:13.531Z,9.70
2018-06-15T15:41:42.208Z,11.23
2018-06-15T15:44:10.830Z,8.20
2018-06-15T15:46:39.805Z,11.67
2018-06-15T15:49:08.518Z,15.10
2018-06-15T15:51:37.159Z,12.97
2018-06-15T15:54:05.810Z,12.63
2018-06-15T15:56:34.436Z,13.73
2018-06-15T15:59:03.153Z,11.47
2018-06-15T16:01:31.810Z,7.87
2018-06-15T16:04:00.466Z,10.90
2018-06-15T16:06:29.126Z,11.57
2018-06-15T16:08:58.228Z,15.00
2018-06-15T16:11:26.879Z,12.57
2018-06-15T16:13:55.525Z,12.47
2018-06-15T16:16:24.492Z,14.90
2018-06-15T16:18:53.225Z,10.73
2018-06-15T16:21:21.891Z,13.80
2018-06-15T16:23:50.540Z,13.93
2018-06-15T16:26:19.197Z,12.50
2018-06-15T16:28:48.195Z,12.97
2018-06-15T16:31:16.946Z,12.33
2018-06-15T16:33:45.914Z,15.20
2018-06-15T16:36:14.716Z,15.50
2018-06-15T16:38:43.358Z,13.90
2018-06-15T16:41:12.390Z,21.27
2018-06-15T16:43:41.386Z,21.63
2018-06-15T16:46:10.178Z,13.10
2018-06-15T16:48:38.922Z,13.07
2018-06-15T16:51:07.668Z,13.60
2018-06-15T16:53:36.395Z,14.33
2018-06-15T16:56:05.097Z,12.77
2018-06-15T16:58:33.892Z,14.53
2018-06-15T17:01:02.610Z,11.60
2018-06-15T17:03:31.279Z,16.87
2018-06-15T17:05:59.928Z,14.30
2018-06-15T17:08:28.597Z,14.90
2018-06-15T17:10:57.215Z,11.33
2018-06-15T17:13:26.145Z,15.00
2018-06-15T17:15:54.783Z,11.10
2018-06-15T17:18:23.465Z,14.77
2018-06-15T17:20:52.503Z,16.07
2018-06-15T17:23:21.330Z,16.33
2018-06-15T17:25:50.027Z,15.57
2018-06-15T17:28:18.776Z,13.90
2018-06-15T17:30:47.465Z,17.77
2018-06-15T17:33:16.191Z,23.03
2018-06-15T17:35:44.952Z,20.87
2018-06-15T17:38:14.073Z,15.33
2018-06-15T17:40:43.121Z,21.33
2018-06-15T17:43:11.899Z,14.73
2018-06-15T17:45:40.607Z,15.77
2018-06-15T17:48:09.292Z,12.90
2018-06-15T17:50:38.012Z,12.87
2018-06-15T17:53:07.510Z,16.50
2018-06-15T17:55:36.420Z,17.17
2018-06-15T18:00:40.193Z,11.93
2018-06-15T18:03:09.051Z,18.83
2018-06-15T18:05:38.103Z,16.83
2018-06-15T18:08:06.792Z,22.33
2018-06-15T18:10:35.889Z,17.33
2018-06-15T18:13:04.529Z,20.00
2018-06-15T18:15:33.209Z,18.30
2018-06-15T18:18:01.930Z,13.40
2018-06-15T18:20:30.904Z,18.07
2018-06-15T18:22:59.642Z,19.80
2018-06-15T18:25:28.715Z,18.87
2018-06-15T18:27:57.537Z,15.10
2018-06-15T18:30:26.342Z,14.60
2018-06-15T18:32:55.126Z,20.47
2018-06-15T18:35:23.845Z,19.23
2018-06-15T18:37:52.691Z,14.60
2018-06-15T18:40:21.615Z,18.27
2018-06-15T18:42:50.497Z,19.20
2018-06-15T18:45:19.915Z,21.40
2018-06-15T18:47:48.682Z,19.93
2018-06-15T18:50:17.420Z,19.87
2018-06-15T18:52:46.111Z,14.27
2018-06-15T18:55:14.751Z,20.67
2018-06-15T18:57:43.467Z,19.67
2018-06-15T19:00:12.528Z,20.17
2018-06-15T19:02:41.378Z,17.83
2018-06-15T19:05:10.149Z,21.17
2018-06-15T19:07:38.803Z,16.60
2018-06-15T19:10:07.463Z,16.87
2018-06-15T19:12:36.082Z,21.17
2018-06-15T19:15:05.124Z,16.83
2018-06-15T19:17:33.808Z,16.43
2018-06-15T19:20:02.836Z,16.33
2018-06-15T19:22:31.601Z,19.30
2018-06-15T19:25:00.617Z,14.27
2018-06-15T19:27:29.382Z,18.63
2018-06-15T19:29:58.039Z,18.90
2018-06-15T19:32:27.078Z,17.53
2018-06-15T19:34:56.132Z,18.50
2018-06-15T19:37:24.787Z,16.30
2018-06-15T19:39:53.784Z,18.03
2018-06-15T19:42:22.774Z,18.40
2018-06-15T19:44:51.536Z,17.50
2018-06-15T19:47:20.512Z,16.00
2018-06-15T19:49:49.322Z,20.80
2018-06-15T19:52:17.945Z,14.43
2018-06-15T19:54:46.974Z,22.67
2018-06-15T19:57:16.038Z,21.50
2018-06-15T19:59:45.116Z,23.67
2018-06-15T20:02:13.835Z,25.80
2018-06-15T20:04:42.804Z,19.93
2018-06-15T20:07:11.578Z,26.57
2018-06-15T20:09:40.216Z,26.30
2018-06-15T20:12:08.873Z,13.50
2018-06-15T20:14:37.869Z,23.17
2018-06-15T20:17:06.520Z,22.77
2018-06-15T20:19:35.151Z,31.33
2018-06-15T20:22:03.929Z,35.60
2018-06-15T20:24:32.914Z,25.20
2018-06-15T20:27:01.671Z,27.33
2018-06-15T20:29:30.316Z,23.13
2018-06-15T20:31:59.174Z,21.03
2018-06-15T20:34:28.107Z,24.50
2018-06-15T20:36:56.862Z,21.23
2018-06-15T20:39:25.482Z,26.83
2018-06-15T20:41:54.194Z,21.07
2018-06-15T20:44:22.997Z,28.87
2018-06-15T20:46:52.013Z,27.97
2018-06-15T20:49:20.764Z,23.80
2018-06-15T20:51:49.406Z,22.53
2018-06-15T20:54:18.069Z,23.00
2018-06-15T20:56:46.751Z,27.47
2018-06-15T20:59:15.490Z,31.67
2018-06-15T21:01:44.452Z,25.37
2018-06-15T21:04:13.183Z,24.17
2018-06-15T21:06:42.170Z,21.93
2018-06-15T21:09:11.145Z,20.13
2018-06-15T21:11:39.782Z,35.57
2018-06-15T21:14:08.416Z,31.23
2018-06-15T21:16:37.203Z,28.47
2018-06-15T21:19:06.236Z,25.70
2018-06-15T21:21:34.961Z,18.27
2018-06-15T21:24:03.943Z,23.50
2018-06-15T21:26:32.683Z,28.43
2018-06-15T21:29:01.306Z,23.53
2018-06-15T21:31:29.971Z,30.47
2018-06-15T21:33:58.669Z,21.83
2018-06-15T21:36:27.639Z,21.00
2018-06-15T21:38:56.713Z,20.80
2018-06-15T21:41:25.787Z,22.33
2018-06-15T21:43:54.548Z,26.47
2018-06-15T21:46:23.203Z,23.43
2018-06-15T21:48:51.884Z,25.17
2018-06-15T21:51:20.947Z,32.67
2018-06-15T21:53:50.033Z,25.70
2018-06-15T21:56:19.087Z,25.50
2018-06-15T21:58:47.837Z,22.63
2018-06-15T22:01:16.850Z,29.60
2018-06-15T22:03:45.585Z,23.23
2018-06-15T22:06:14.562Z,30.63
2018-06-15T22:08:43.397Z,27.30
2018-06-15T22:11:12.389Z,28.50
2018-06-15T22:13:41.454Z,31.07
2018-06-15T22:16:10.524Z,30.97
2018-06-15T22:18:39.621Z,19.47
2018-06-15T22:21:08.355Z,23.60
2018-06-15T22:23:37.467Z,28.33
2018-06-15T22:26:06.619Z,29.93
2018-06-15T22:28:35.291Z,32.67
2018-06-15T22:31:04.268Z,24.77
2018-06-15T22:33:33.296Z,32.17
2018-06-15T22:36:02.597Z,27.87
2018-06-15T22:38:31.863Z,30.83
2018-06-15T22:41:00.943Z,34.40
2018-06-15T22:43:30.007Z,31.60
2018-06-15T22:45:59.080Z,28.17
2018-06-15T22:48:28.159Z,28.33
2018-06-15T22:50:57.243Z,27.67
2018-06-15T22:53:26.835Z,32.07
2018-06-15T22:55:56.123Z,33.63
2018-06-15T22:58:25.202Z,24.57
2018-06-15T23:00:53.942Z,31.33
2018-06-15T23:03:22.912Z,30.00
2018-06-15T23:05:52.301Z,25.90
2018-06-15T23:08:21.030Z,35.40
2018-06-15T23:10:49.791Z,27.77
2018-06-15T23:13:18.804Z,30.67
2018-06-15T23:15:48.108Z,29.73
2018-06-15T23:18:17.180Z,36.43
2018-06-15T23:20:46.447Z,28.20
2018-06-15T23:23:15.529Z,33.23
2018-06-15T23:25:44.925Z,30.73
2018-06-15T23:28:13.891Z,24.70
2018-06-15T23:30:42.525Z,31.33
2018-06-15T23:33:11.495Z,35.47
2018-06-15T23:35:40.230Z,26.63
2018-06-15T23:38:09.375Z,26.80
2018-06-15T23:40:38.421Z,25.67
2018-06-15T23:43:07.528Z,22.80
2018-06-15T23:45:36.567Z,24.73
2018-06-15T23:48:05.699Z,27.10
2018-06-15T23:50:34.786Z,26.77
2018-06-15T23:53:04.149Z,27.50
2018-06-15T23:55:33.224Z,29.50
2018-06-15T23:58:02.296Z,27.77
